Flight Track Log - Related Links

Times and Time Zones

All times are in EDT time to prevent confusion due to time zone crossing. See the N589H flight status page for this flight to view local times or setup timezone preferences in your user account.


Time Position Orientation Groundspeed Altitude Reporting Facility
EDT Latitude Longitude Course Direction KTS MPH feet Rate Location/Type
Thu 02:25:53 AM 27.9000 -82.6833 180° South 164 189 800  Level Tampa TRACON
Thu 02:25:59 AM 27.8833 -82.6833 180° South 139 160 1,000 1,941 Climbing Tampa TRACON
Thu 02:28:09 AM 27.7992 -82.6706 172° South 171 197 5,200 1,873 Climbing Miami Center
Thu 02:29:08 AM 27.7456 -82.6561 167° South 178 205 6,900 1,950 Climbing Miami Center
Thu 02:30:09 AM 27.6900 -82.6369 163° South 200 230 9,100 2,132 Climbing Miami Center
Thu 02:31:09 AM 27.6567 -82.5836 125° Southeast 200 230 11,200 1,932 Climbing Miami Center
Thu 02:32:07 AM 27.6236 -82.5186 120° Southeast 206 237 12,900 1,780 Climbing Miami Center
Thu 02:33:07 AM 27.5911 -82.4492 118° Southeast 230 265 14,700 1,900 Climbing Miami Center
Thu 02:34:07 AM 27.5581 -82.3797 118° Southeast 250 288 16,700 1,587 Climbing Miami Center
Thu 02:35:08 AM 27.5214 -82.3078 120° Southeast 260 299 17,900 1,150 Climbing Miami Center
Thu 02:36:07 AM 27.4786 -82.2192 119° Southeast 277 319 19,000 1,109 Climbing Miami Center
Thu 02:37:07 AM 27.4417 -82.1450 119° Southeast 301 346 20,100 1,050 Climbing Miami Center
Thu 02:38:07 AM 27.3989 -82.0611 120° Southeast 307 353 21,100 1,091 Climbing Miami Center
Thu 02:39:08 AM 27.3503 -81.9583 118° Southeast 330 380 22,300 1,091 Climbing Miami Center
Thu 02:40:08 AM 27.3036 -81.8675 120° Southeast 335 386 23,300 1,059 Climbing Miami Center
Thu 02:41:07 AM 27.2567 -81.7722 119° Southeast 346 398 24,400 1,059 Climbing Miami Center
Thu 02:42:07 AM 27.2117 -81.6814 119° Southeast 356 410 25,400 1,000 Climbing Miami Center
Thu 02:43:07 AM 27.1608 -81.5814 120° Southeast 361 415 26,400 738 Climbing Miami Center
Thu 02:44:09 AM 27.1019 -81.4647 120° Southeast 378 435 26,900 492 Climbing Miami Center
Thu 02:45:09 AM 27.0489 -81.3531 118° Southeast 391 450 27,400 500 Climbing Miami Center
Thu 02:46:09 AM 26.9917 -81.2461 121° Southeast 396 456 27,900 446 Climbing Miami Center
Thu 02:47:10 AM 26.9447 -81.1464 118° Southeast 406 467 28,300 446 Climbing Miami Center
Thu 02:48:10 AM 26.8853 -81.0369 121° Southeast 406 467 28,800 508 Climbing Miami Center
Thu 02:49:08 AM 26.8300 -80.9233 119° Southeast 414 476 29,300 504 Climbing Miami Center
Thu 02:50:09 AM 26.7706 -80.8050 119° Southeast 407 468 29,800 504 Climbing Miami Center
Thu 02:51:07 AM 26.7169 -80.7056 121° Southeast 414 476 30,300 500 Climbing Miami Center
Thu 02:52:09 AM 26.6533 -80.5825 120° Southeast 409 471 30,800 350 Climbing Miami Center
Thu 02:53:07 AM 26.6033 -80.4858 120° Southeast 409 471 31,000 100 Climbing Miami Center
Thu 02:54:09 AM 26.5397 -80.3631 120° Southeast 409 471 31,000  Level Miami Center
Thu 02:55:07 AM 26.4858 -80.2594 120° Southeast 414 476 31,000  Level Miami Center
Thu 02:56:09 AM 26.4278 -80.1417 119° Southeast 419 482 31,000  Level Miami Center
Thu 02:57:07 AM 26.3597 -80.0147 121° Southeast 434 499 31,000  Level Miami Center
Thu 02:58:07 AM 26.3075 -79.9089 119° Southeast 434 499 31,000  Level Miami Center
Thu 02:59:07 AM 26.2472 -79.7917 120° Southeast 434 499 31,000  Level Miami Center
Thu 03:00:09 AM 26.1786 -79.6672 122° Southeast 434 499 31,000  Level Miami Center
Thu 03:01:08 AM 26.1183 -79.5478 119° Southeast 434 499 31,000  Level Miami Center
Thu 03:03:09 AM 25.9947 -79.3186 121° Southeast 434 499 31,000  Level Miami Center
Thu 03:04:07 AM 25.9342 -79.2017 120° Southeast 440 506 31,000  Level Miami Center
Thu 03:05:10 AM 25.8733 -79.0850 120° Southeast 435 501 31,000  Level Miami Center
Thu 03:06:07 AM 25.8122 -78.9708 121° Southeast 430 495 31,000  Level Miami Center
Thu 03:07:08 AM 25.7594 -78.8683 120° Southeast 430 495 31,000  Level Miami Center
Thu 03:08:07 AM 25.7003 -78.7522 119° Southeast 430 495 31,000  Level Miami Center
Thu 03:09:07 AM 25.6369 -78.6383 122° Southeast 430 495 31,000  Level Miami Center
Thu 03:10:07 AM 25.5756 -78.5267 121° Southeast 435 501 31,000  Level Miami Center
Thu 03:11:07 AM 25.5161 -78.4086 119° Southeast 435 501 31,000  Level Miami Center
Thu 03:12:07 AM 25.4567 -78.2972 121° Southeast 429 494 31,000  Level Miami Center
Thu 03:13:10 AM 25.3931 -78.1839 122° Southeast 429 494 31,000  Level Miami Center
Thu 03:14:07 AM 25.3292 -78.0706 122° Southeast 429 494 31,000  Level Miami Center
Thu 03:15:10 AM 25.2694 -77.9594 121° Southeast 429 494 31,000  Level Miami Center
Thu 03:16:07 AM 25.2075 -77.8442 121° Southeast 429 494 31,000  Level Miami Center
Thu 03:17:10 AM 25.1456 -77.7333 122° Southeast 429 494 31,000  Level Miami Center
Thu 03:18:07 AM 25.0856 -77.6228 121° Southeast 429 494 31,000  Level Miami Center
Thu 03:19:08 AM 25.0192 -77.5100 123° Southeast 429 494 31,000  Level Miami Center
Thu 03:20:09 AM 24.9592 -77.3953 120° Southeast 435 501 31,000  Level Miami Center
Thu 03:21:09 AM 24.9008 -77.2828 120° Southeast 435 501 31,000  Level Miami Center
Thu 03:22:09 AM 24.8386 -77.1725 122° Southeast 429 494 31,000  Level Miami Center
Thu 03:23:07 AM 24.7781 -77.0625 121° Southeast 429 494 31,000  Level Miami Center
Thu 03:24:10 AM 24.7156 -76.9503 121° Southeast 429 494 31,000  Level Miami Center
Thu 03:25:07 AM 24.6550 -76.8406 121° Southeast 429 494 31,000  Level Miami Center
Thu 03:26:09 AM 24.5922 -76.7286 122° Southeast 429 494 31,000  Level Miami Center
Thu 03:27:08 AM 24.5294 -76.6167 122° Southeast 429 494 31,000  Level Miami Center
Thu 03:28:10 AM 24.4664 -76.5072 122° Southeast 429 494 31,000  Level Miami Center
Thu 03:29:08 AM 24.4014 -76.3864 121° Southeast 429 494 31,000  Level Miami Center
Thu 03:30:08 AM 24.3403 -76.2772 122° Southeast 424 488 31,000  Level Miami Center
Thu 03:31:09 AM 24.2772 -76.1658 122° Southeast 424 488 31,000  Level Miami Center
Thu 03:32:09 AM 24.2158 -76.0544 121° Southeast 424 488 31,000  Level Miami Center
Thu 03:33:08 AM 24.1525 -75.9456 122° Southeast 424 488 31,000  Level Miami Center
Thu 03:34:10 AM 24.0914 -75.8367 122° Southeast 424 488 31,000  Level Miami Center
Thu 03:35:09 AM 24.0300 -75.7281 122° Southeast 424 488 31,000  Level Miami Center
Thu 03:36:08 AM 23.9683 -75.6172 121° Southeast 424 488 31,000  Level Miami Center
Thu 03:37:10 AM 23.9069 -75.5086 122° Southeast 424 488 31,000  Level Miami Center
Thu 03:38:07 AM 23.8431 -75.3981 122° Southeast 424 488 31,000  Level Miami Center
Thu 03:39:07 AM 23.7814 -75.2875 121° Southeast 424 488 31,000  Level Miami Center
Thu 03:40:07 AM 23.7175 -75.1794 123° Southeast 424 488 31,000  Level Miami Center
Thu 03:41:07 AM 23.6517 -75.0942 130° Southeast 424 488 31,000  Level Miami Center
Thu 03:42:07 AM 23.5733 -74.9978 132° Southeast 419 482 31,000  Level Miami Center
Thu 03:43:09 AM 23.4989 -74.9014 130° Southeast 419 482 31,000  Level Miami Center
Thu 03:44:07 AM 23.4203 -74.8075 132° Southeast 419 482 31,000  Level Miami Center
Thu 03:45:09 AM 23.3458 -74.7092 129° Southeast 419 482 31,000  Level Miami Center
Thu 03:46:07 AM 23.2692 -74.6156 132° Southeast 419 482 31,000  Level Miami Center
Thu 03:47:07 AM 23.1967 -74.5194 129° Southeast 419 482 31,000  Level Miami Center
Thu 03:48:07 AM 23.1200 -74.4239 131° Southeast 419 482 31,000  Level Miami Center
Thu 03:49:07 AM 23.0433 -74.3306 132° Southeast 419 482 31,000  Level Miami Center
Thu 03:50:07 AM 22.9683 -74.2328 130° Southeast 419 482 31,000  Level Miami Center
Thu 03:51:07 AM 22.8917 -74.1419 132° Southeast 419 482 31,000  Level Miami Center
Thu 03:52:07 AM 22.8189 -74.0464 130° Southeast 414 476 31,000  Level Miami Center
Thu 03:53:07 AM 22.7419 -73.9514 131° Southeast 414 476 31,000  Level Miami Center
Thu 03:54:07 AM 22.6689 -73.8561 130° Southeast 414 476 31,000  Level Miami Center
Thu 03:55:09 AM 22.5939 -73.7636 131° Southeast 414 476 31,000  Level Miami Center
Thu 03:56:07 AM 22.5169 -73.6731 133° Southeast 409 471 31,000  Level Miami Center
Thu 03:57:09 AM 22.4458 -73.5761 128° Southeast 409 471 31,000  Level Miami Center
Thu 03:58:09 AM 22.3686 -73.4836 132° Southeast 409 471 31,000  Level Miami Center
Thu 03:59:07 AM 22.2850 -73.3825 132° Southeast 409 471 31,000  Level Miami Center
Thu 04:00:08 AM 22.2036 -73.2906 134° Southeast 409 471 31,000  Level Miami Center
Thu 04:01:07 AM 22.1344 -73.1961 128° Southeast 409 471 31,000  Level Miami Center
Thu 04:02:07 AM 22.0550 -73.1019 132° Southeast 409 471 31,000  Level Miami Center
Thu 04:03:07 AM 21.9817 -73.0100 131° Southeast 409 471 31,000  Level Miami Center
Thu 04:04:09 AM 21.9061 -72.9183 132° Southeast 409 471 31,000  Level Miami Center
Thu 04:05:07 AM 21.8267 -72.8267 133° Southeast 409 471 31,000  Level Miami Center
Thu 04:06:07 AM 21.7531 -72.7353 131° Southeast 409 471 31,000  Level Miami Center
Thu 04:07:07 AM 21.6797 -72.6436 131° Southeast 409 471 31,000  Level Miami Center
Thu 04:08:09 AM 21.6061 -72.5522 131° Southeast 409 471 31,000  Level Miami Center
Thu 04:09:07 AM 21.5306 -72.4589 131° Southeast 409 471 31,000  Level Miami Center
Thu 04:10:07 AM 21.4547 -72.3678 132° Southeast 409 471 31,000  Level Miami Center
Thu 04:11:07 AM 21.3769 -72.2744 132° Southeast 409 471 31,000  Level Miami Center
Thu 04:12:08 AM 21.3014 -72.1858 132° Southeast 409 471 31,000  Level Miami Center
Thu 04:13:09 AM 21.2275 -72.0928 130° Southeast 409 471 31,000  Level Miami Center
Thu 04:14:07 AM 21.1517 -72.0019 132° Southeast 409 471 31,000  Level Miami Center
Thu 04:15:07 AM 21.0758 -71.9136 133° Southeast 409 471 31,000  Level Miami Center
Thu 04:16:09 AM 20.9997 -71.8208 131° Southeast 409 471 31,000  Level Miami Center
Thu 04:17:07 AM 20.9258 -71.7303 131° Southeast 409 471 31,000  Level Miami Center
Thu 04:18:07 AM 20.8478 -71.6378 132° Southeast 409 471 31,000  Level Miami Center
Thu 04:19:07 AM 20.7717 -71.5453 131° Southeast 409 471 31,000  Level Miami Center
Thu 04:20:07 AM 20.6956 -71.4553 132° Southeast 409 471 31,000  Level Miami Center
Thu 04:21:07 AM 20.6194 -71.3653 132° Southeast 414 476 31,000  Level Miami Center
Thu 04:22:08 AM 20.5431 -71.2731 131° Southeast 414 476 31,000  Level Miami Center
Thu 04:23:07 AM 20.4667 -71.1811 132° Southeast 414 476 31,000  Level Miami Center
Thu 04:24:07 AM 20.3925 -71.0914 131° Southeast 409 471 31,000  Level Miami Center
Thu 04:25:07 AM 20.3064 -71.0111 139° Southeast 409 471 31,000  Level Miami Center
Thu 04:26:07 AM 20.2361 -70.9169 128° Southeast 409 471 31,000  Level Miami Center
Thu 04:27:07 AM 20.1717 -70.8181 125° Southeast 409 471 31,000  Level Miami Center
Thu 04:28:07 AM 20.1053 -70.7172 125° Southeast 409 471 31,000  Level Miami Center
Thu 04:29:07 AM 20.0411 -70.6211 125° Southeast 416 479 31,000  Level Miami Center
Thu 04:30:09 AM 19.9767 -70.5203 124° Southeast 416 479 31,000  Level Miami Center
Thu 04:32:00 AM 19.8834 -70.3415 119° Southeast  Level FlightAware Approximate
Thu 04:39:00 AM 19.4765 -69.7020 126° Southeast  Level FlightAware Approximate
Thu 04:40:00 AM 19.4152 -69.6130 126° Southeast  Level FlightAware Approximate
Thu 04:41:00 AM 19.3540 -69.5240 126° Southeast  Level FlightAware Approximate
Thu 04:42:00 AM 19.2929 -69.4349 126° Southeast  Level FlightAware Approximate
Thu 04:43:00 AM 19.2317 -69.3460 126° Southeast  Level FlightAware Approximate
Thu 04:44:00 AM 19.1750 -69.2541 125° Southeast  Level FlightAware Approximate
Thu 04:45:00 AM 19.1151 -69.1642 125° Southeast  Level FlightAware Approximate
Thu 04:46:00 AM 19.0552 -69.0743 125° Southeast  Level FlightAware Approximate
Thu 04:47:00 AM 18.9962 -68.9839 123° Southeast  Level FlightAware Approximate
Thu 04:48:00 AM 18.9389 -68.8922 123° Southeast  Level FlightAware Approximate
Thu 04:49:00 AM 18.8762 -68.8047 128° Southeast  Level FlightAware Approximate
Thu 04:50:00 AM 18.8129 -68.7177 128° Southeast  Level FlightAware Approximate
Thu 04:51:00 AM 18.7523 -68.6285 125° Southeast  Level FlightAware Approximate
Thu 04:52:00 AM 18.6919 -68.5392 128° Southeast  Level FlightAware Approximate
Thu 04:53:00 AM 18.6305 -68.4509 122° Southeast  Level FlightAware Approximate
Thu 04:54:00 AM 18.5782 -68.3563 118° Southeast  Level FlightAware Approximate
Thu 04:55:00 AM 18.5674 -68.3634 118° Southeast  Level Estimated
Thu 04:56:00 AM 18.5674 -68.3634 118° Southeast  Level Estimated
Thu 04:57:00 AM 18.5674 -68.3634 118° Southeast  Level Estimated
Thu 04:58:00 AM 18.5674 -68.3634 118° Southeast  Level Estimated
Thu 04:59:00 AM 18.5674 -68.3634 118° Southeast  Level Estimated
Thu 05:00:00 AM 18.5674 -68.3634 118° Southeast  Level Estimated
Thu 05:01:00 AM 18.5674 -68.3634 118° Southeast  Level Estimated
Thu 05:02:00 AM 18.5674 -68.3634 118° Southeast  Level Estimated
Thu 05:03:00 AM 18.5674 -68.3634 118° Southeast  Level Estimated
Thu 05:04:00 AM 18.5674 -68.3634 118° Southeast  Level Estimated
Thu 05:05:00 AM 18.5674 -68.3634 118° Southeast  Level Estimated
Thu 05:06:00 AM 18.5674 -68.3634 118° Southeast  Level Estimated
Thu 05:07:00 AM 18.5674 -68.3634 118° Southeast  Level Estimated
Thu 05:08:00 AM 18.5674 -68.3634 118° Southeast  Level Estimated
Thu 05:09:00 AM 18.5674 -68.3634 118° Southeast  Level Estimated
Thu 05:10:00 AM 18.5674 -68.3634 118° Southeast  Level Estimated
Thu 05:11:00 AM 18.5674 -68.3634 118° Southeast  Level Estimated
Thu 05:12:00 AM 18.5674 -68.3634 118° Southeast  Level Estimated
Thu 05:13:00 AM 18.5674 -68.3634 118° Southeast  Level Estimated
Thu 05:14:00 AM 18.5674 -68.3634 118° Southeast  Level Estimated
Thu 05:15:00 AM 18.5674 -68.3634 118° Southeast  Level Estimated
Thu 05:16:00 AM 18.5674 -68.3634 118° Southeast  Level Estimated
Thu 05:17:00 AM 18.5674 -68.3634 118° Southeast  Level Estimated

Login

Don't have an account? Register now (free) for customized features, flight alerts, and more!